sensor_id;sensor_type;location;lat;lon;timestamp;pressure;altitude;pressure_sealevel;temperature;humidity
79331;BME280;68797;49.782;19.054;2023-07-31T00:01:09;96855.22;;;18.49;78.83
79331;BME280;68797;49.782;19.054;2023-07-31T00:03:57;96837.91;;;18.27;78.89
79331;BME280;68797;49.782;19.054;2023-07-31T00:06:53;96833.50;;;18.26;78.41
79331;BME280;68797;49.782;19.054;2023-07-31T00:09:28;96846.63;;;18.44;78.55
79331;BME280;68797;49.782;19.054;2023-07-31T00:12:15;96850.81;;;18.35;78.54
79331;BME280;68797;49.782;19.054;2023-07-31T00:15:14;96819.56;;;18.34;77.95
79331;BME280;68797;49.782;19.054;2023-07-31T00:18:17;96849.22;;;18.45;78.37
79331;BME280;68797;49.782;19.054;2023-07-31T00:20:57;96853.84;;;18.43;79.01
79331;BME280;68797;49.782;19.054;2023-07-31T00:23:43;96855.56;;;18.44;78.04
79331;BME280;68797;49.782;19.054;2023-07-31T00:26:32;96857.03;;;18.48;78.01
79331;BME280;68797;49.782;19.054;2023-07-31T00:29:17;96874.88;;;18.49;78.52
79331;BME280;68797;49.782;19.054;2023-07-31T00:31:55;96843.72;;;18.34;77.30
79331;BME280;68797;49.782;19.054;2023-07-31T00:34:35;96840.28;;;18.32;77.96
79331;BME280;68797;49.782;19.054;2023-07-31T00:37:16;96884.47;;;18.41;78.44
79331;BME280;68797;49.782;19.054;2023-07-31T00:40:11;96885.09;;;18.32;77.82
79331;BME280;68797;49.782;19.054;2023-07-31T00:42:56;96887.56;;;18.35;77.30
79331;BME280;68797;49.782;19.054;2023-07-31T00:45:33;96880.13;;;18.25;76.99
79331;BME280;68797;49.782;19.054;2023-07-31T00:48:07;96871.53;;;18.08;76.96
79331;BME280;68797;49.782;19.054;2023-07-31T00:50:38;96880.47;;;18.21;76.29
79331;BME280;68797;49.782;19.054;2023-07-31T00:53:46;96890.75;;;18.14;78.18
79331;BME280;68797;49.782;19.054;2023-07-31T00:56:25;96882.34;;;18.06;77.48
79331;BME280;68797;49.782;19.054;2023-07-31T00:59:00;96887.63;;;18.08;78.18
79331;BME280;68797;49.782;19.054;2023-07-31T01:02:00;96879.53;;;17.95;78.39
79331;BME280;68797;49.782;19.054;2023-07-31T01:04:42;96853.41;;;17.84;78.06
79331;BME280;68797;49.782;19.054;2023-07-31T01:07:55;96889.53;;;18.06;78.01
79331;BME280;68797;49.782;19.054;2023-07-31T01:10:51;96829.34;;;17.70;79.27
79331;BME280;68797;49.782;19.054;2023-07-31T01:13:44;96879.78;;;18.05;78.52
79331;BME280;68797;49.782;19.054;2023-07-31T01:16:15;96854.44;;;17.96;78.58
79331;BME280;68797;49.782;19.054;2023-07-31T01:18:48;96866.66;;;18.00;77.90
79331;BME280;68797;49.782;19.054;2023-07-31T01:28:23;96890.59;;;17.90;77.15
79331;BME280;68797;49.782;19.054;2023-07-31T01:31:17;96839.25;;;17.55;76.82
79331;BME280;68797;49.782;19.054;2023-07-31T01:34:02;96858.47;;;17.62;76.97
79331;BME280;68797;49.782;19.054;2023-07-31T01:36:47;96869.19;;;17.62;76.91
79331;BME280;68797;49.782;19.054;2023-07-31T01:39:32;96893.13;;;17.79;76.88
79331;BME280;68797;49.782;19.054;2023-07-31T01:42:16;96891.72;;;17.74;76.52
79331;BME280;68797;49.782;19.054;2023-07-31T01:44:48;96895.34;;;17.73;77.14
79331;BME280;68797;49.782;19.054;2023-07-31T01:47:30;96899.25;;;17.81;77.26
79331;BME280;68797;49.782;19.054;2023-07-31T01:50:02;96861.00;;;17.51;77.67
79331;BME280;68797;49.782;19.054;2023-07-31T01:52:52;96889.59;;;17.79;77.69
79331;BME280;68797;49.782;19.054;2023-07-31T01:55:33;96903.00;;;17.79;77.70
79331;BME280;68797;49.782;19.054;2023-07-31T01:58:35;96865.22;;;17.55;77.97
79331;BME280;68797;49.782;19.054;2023-07-31T02:01:06;96899.84;;;17.72;77.96
79331;BME280;68797;49.782;19.054;2023-07-31T02:03:45;96881.59;;;17.50;78.56
79331;BME280;68797;49.782;19.054;2023-07-31T02:06:41;96902.94;;;17.66;78.02
79331;BME280;68797;49.782;19.054;2023-07-31T02:09:10;96921.03;;;17.77;78.49
79331;BME280;68797;49.782;19.054;2023-07-31T02:11:40;96917.78;;;17.71;78.39
79331;BME280;68797;49.782;19.054;2023-07-31T02:14:45;96919.72;;;17.69;79.35
79331;BME280;68797;49.782;19.054;2023-07-31T02:17:31;96922.47;;;17.68;78.96
79331;BME280;68797;49.782;19.054;2023-07-31T02:20:16;96882.66;;;17.48;79.38
79331;BME280;68797;49.782;19.054;2023-07-31T02:23:15;96888.78;;;17.50;78.63
79331;BME280;68797;49.782;19.054;2023-07-31T02:25:56;96870.84;;;17.23;78.66
79331;BME280;68797;49.782;19.054;2023-07-31T02:28:47;96876.38;;;17.34;79.41
79331;BME280;68797;49.782;19.054;2023-07-31T02:31:35;96911.88;;;17.52;79.47
79331;BME280;68797;49.782;19.054;2023-07-31T02:37:33;96904.59;;;17.54;79.52
79331;BME280;68797;49.782;19.054;2023-07-31T02:40:01;96930.72;;;17.65;79.54
79331;BME280;68797;49.782;19.054;2023-07-31T02:42:36;96929.28;;;17.59;80.15
79331;BME280;68797;49.782;19.054;2023-07-31T02:45:11;96938.50;;;17.55;80.32
79331;BME280;68797;49.782;19.054;2023-07-31T02:47:43;96920.31;;;17.46;80.53
79331;BME280;68797;49.782;19.054;2023-07-31T02:50:18;96899.06;;;17.29;80.04
79331;BME280;68797;49.782;19.054;2023-07-31T02:52:53;96941.19;;;17.55;81.07
79331;BME280;68797;49.782;19.054;2023-07-31T02:55:30;96937.44;;;17.58;80.05
79331;BME280;68797;49.782;19.054;2023-07-31T02:58:07;96907.59;;;17.35;79.08
79331;BME280;68797;49.782;19.054;2023-07-31T03:00:53;96952.56;;;17.59;79.50
79331;BME280;68797;49.782;19.054;2023-07-31T03:03:21;96941.84;;;17.59;79.67
79331;BME280;68797;49.782;19.054;2023-07-31T03:06:13;96944.94;;;17.53;79.91
79331;BME280;68797;49.782;19.054;2023-07-31T03:08:55;96944.94;;;17.53;79.71
79331;BME280;68797;49.782;19.054;2023-07-31T03:11:26;96947.44;;;17.41;79.78
79331;BME280;68797;49.782;19.054;2023-07-31T03:14:05;96919.22;;;17.22;80.04
79331;BME280;68797;49.782;19.054;2023-07-31T03:16:38;96922.38;;;17.14;80.68
79331;BME280;68797;49.782;19.054;2023-07-31T03:19:24;96957.03;;;17.31;81.09
79331;BME280;68797;49.782;19.054;2023-07-31T03:22:01;96958.06;;;17.29;81.45
79331;BME280;68797;49.782;19.054;2023-07-31T03:24:38;96964.41;;;17.28;81.77
79331;BME280;68797;49.782;19.054;2023-07-31T03:27:16;96928.81;;;17.11;83.28
79331;BME280;68797;49.782;19.054;2023-07-31T03:29:50;96946.72;;;17.11;84.64
79331;BME280;68797;49.782;19.054;2023-07-31T03:32:19;96968.16;;;17.11;85.58
79331;BME280;68797;49.782;19.054;2023-07-31T03:34:52;96967.88;;;17.01;86.97
79331;BME280;68797;49.782;19.054;2023-07-31T03:37:23;96956.44;;;16.69;87.41
79331;BME280;68797;49.782;19.054;2023-07-31T03:39:59;96944.50;;;16.75;87.35
79331;BME280;68797;49.782;19.054;2023-07-31T03:42:31;96983.94;;;16.87;86.54
79331;BME280;68797;49.782;19.054;2023-07-31T03:45:05;96980.56;;;16.83;85.84
79331;BME280;68797;49.782;19.054;2023-07-31T03:47:56;96985.47;;;16.77;85.06
79331;BME280;68797;49.782;19.054;2023-07-31T03:50:32;96957.28;;;16.25;83.32
79331;BME280;68797;49.782;19.054;2023-07-31T03:53:05;96960.81;;;16.26;83.84
79331;BME280;68797;49.782;19.054;2023-07-31T03:55:37;96995.41;;;16.45;84.04
79331;BME280;68797;49.782;19.054;2023-07-31T03:58:10;97003.66;;;16.26;83.44
79331;BME280;68797;49.782;19.054;2023-07-31T04:00:45;97001.13;;;16.09;84.96
79331;BME280;68797;49.782;19.054;2023-07-31T04:03:21;96994.19;;;16.05;84.90
79331;BME280;68797;49.782;19.054;2023-07-31T04:05:50;96993.34;;;16.04;83.87
79331;BME280;68797;49.782;19.054;2023-07-31T04:08:23;96979.81;;;15.91;84.77
79331;BME280;68797;49.782;19.054;2023-07-31T04:11:06;96977.91;;;15.93;85.58
79331;BME280;68797;49.782;19.054;2023-07-31T04:13:39;97014.38;;;16.26;84.98
79331;BME280;68797;49.782;19.054;2023-07-31T04:16:15;96999.22;;;16.11;84.43
79331;BME280;68797;49.782;19.054;2023-07-31T04:18:43;96994.19;;;16.05;83.42
79331;BME280;68797;49.782;19.054;2023-07-31T04:21:10;97014.03;;;16.16;84.26
79331;BME280;68797;49.782;19.054;2023-07-31T04:24:00;97008.34;;;16.22;84.14
79331;BME280;68797;49.782;19.054;2023-07-31T04:26:36;96980.72;;;16.06;82.80
79331;BME280;68797;49.782;19.054;2023-07-31T04:29:11;96992.13;;;15.94;82.72
79331;BME280;68797;49.782;19.054;2023-07-31T04:31:52;96988.44;;;15.96;83.42
79331;BME280;68797;49.782;19.054;2023-07-31T04:34:24;96973.59;;;15.91;84.22
79331;BME280;68797;49.782;19.054;2023-07-31T04:37:07;96987.44;;;16.13;84.82
79331;BME280;68797;49.782;19.054;2023-07-31T04:40:09;97027.13;;;16.37;84.25
79331;BME280;68797;49.782;19.054;2023-07-31T04:42:47;97016.41;;;16.37;82.72
79331;BME280;68797;49.782;19.054;2023-07-31T04:45:20;97003.66;;;16.26;83.16
79331;BME280;68797;49.782;19.054;2023-07-31T04:47:55;96994.53;;;16.14;82.23
79331;BME280;68797;49.782;19.054;2023-07-31T04:50:35;96992.84;;;16.27;82.90
79331;BME280;68797;49.782;19.054;2023-07-31T04:53:11;96966.25;;;16.24;82.26
79331;BME280;68797;49.782;19.054;2023-07-31T04:56:22;96984.78;;;16.43;82.88
79331;BME280;68797;49.782;19.054;2023-07-31T04:59:28;97008.88;;;16.73;81.17
79331;BME280;68797;49.782;19.054;2023-07-31T05:02:12;97022.44;;;17.14;81.31
79331;BME280;68797;49.782;19.054;2023-07-31T05:05:11;97018.16;;;17.40;80.68
79331;BME280;68797;49.782;19.054;2023-07-31T05:07:53;97008.75;;;17.48;78.30
79331;BME280;68797;49.782;19.054;2023-07-31T05:10:26;97007.28;;;17.56;79.24
79331;BME280;68797;49.782;19.054;2023-07-31T05:13:17;97023.88;;;17.63;78.01
79331;BME280;68797;49.782;19.054;2023-07-31T05:16:09;96986.22;;;17.50;79.34
79331;BME280;68797;49.782;19.054;2023-07-31T05:18:41;96980.78;;;17.52;79.50
79331;BME280;68797;49.782;19.054;2023-07-31T05:21:26;97024.34;;;17.69;78.19
79331;BME280;68797;49.782;19.054;2023-07-31T05:23:59;97020.59;;;17.72;78.12
79331;BME280;68797;49.782;19.054;2023-07-31T05:27:01;97007.13;;;17.74;77.85
79331;BME280;68797;49.782;19.054;2023-07-31T05:29:35;97015.53;;;17.82;78.52
79331;BME280;68797;49.782;19.054;2023-07-31T05:32:44;97021.63;;;17.84;79.56
79331;BME280;68797;49.782;19.054;2023-07-31T05:35:37;97022.53;;;17.70;77.67
79331;BME280;68797;49.782;19.054;2023-07-31T05:38:54;96963.88;;;17.50;77.15
79331;BME280;68797;49.782;19.054;2023-07-31T05:44:41;96965.22;;;17.57;77.45
79331;BME280;68797;49.782;19.054;2023-07-31T05:47:24;97021.03;;;18.07;76.44
79331;BME280;68797;49.782;19.054;2023-07-31T05:50:13;97011.88;;;18.37;74.59
79331;BME280;68797;49.782;19.054;2023-07-31T05:53:23;97003.84;;;18.49;72.81
79331;BME280;68797;49.782;19.054;2023-07-31T05:56:14;96989.66;;;18.74;72.65
79331;BME280;68797;49.782;19.054;2023-07-31T05:59:03;96992.25;;;18.76;73.65
79331;BME280;68797;49.782;19.054;2023-07-31T06:01:55;96966.31;;;18.35;69.93
79331;BME280;68797;49.782;19.054;2023-07-31T06:04:38;96963.81;;;18.19;72.13
79331;BME280;68797;49.782;19.054;2023-07-31T06:07:16;97028.69;;;18.40;73.67
79331;BME280;68797;49.782;19.054;2023-07-31T06:09:46;97012.44;;;18.42;71.56
79331;BME280;68797;49.782;19.054;2023-07-31T06:12:13;97020.47;;;18.29;72.92
79331;BME280;68797;49.782;19.054;2023-07-31T06:14:53;97018.13;;;18.10;72.33
79331;BME280;68797;49.782;19.054;2023-07-31T06:17:21;96986.56;;;17.87;72.31
79331;BME280;68797;49.782;19.054;2023-07-31T06:19:53;96990.00;;;17.89;71.59
79331;BME280;68797;49.782;19.054;2023-07-31T06:22:20;96994.94;;;18.09;72.76
79331;BME280;68797;49.782;19.054;2023-07-31T06:24:56;97024.34;;;18.38;71.55
79331;BME280;68797;49.782;19.054;2023-07-31T06:27:29;97001.06;;;18.11;71.99
79331;BME280;68797;49.782;19.054;2023-07-31T06:29:57;96986.63;;;17.99;73.21
79331;BME280;68797;49.782;19.054;2023-07-31T06:32:26;96992.47;;;17.92;71.55
79331;BME280;68797;49.782;19.054;2023-07-31T06:34:55;97036.41;;;18.18;72.95
79331;BME280;68797;49.782;19.054;2023-07-31T06:37:25;97002.94;;;17.96;74.10
79331;BME280;68797;49.782;19.054;2023-07-31T06:40:03;97020.75;;;18.24;73.94
79331;BME280;68797;49.782;19.054;2023-07-31T06:42:37;97001.09;;;18.24;72.60
79331;BME280;68797;49.782;19.054;2023-07-31T06:45:08;96991.56;;;18.33;72.14
79331;BME280;68797;49.782;19.054;2023-07-31T06:47:42;97006.00;;;18.44;72.19
79331;BME280;68797;49.782;19.054;2023-07-31T06:50:24;96982.25;;;18.51;69.98
79331;BME280;68797;49.782;19.054;2023-07-31T06:52:54;96994.81;;;18.50;72.41
79331;BME280;68797;49.782;19.054;2023-07-31T06:55:21;96989.75;;;18.33;71.57
79331;BME280;68797;49.782;19.054;2023-07-31T06:57:50;97044.19;;;18.62;72.45
79331;BME280;68797;49.782;19.054;2023-07-31T07:00:18;97043.06;;;18.66;70.87
79331;BME280;68797;49.782;19.054;2023-07-31T07:02:47;97054.47;;;18.70;70.38
79331;BME280;68797;49.782;19.054;2023-07-31T07:05:22;97019.00;;;18.50;69.65
79331;BME280;68797;49.782;19.054;2023-07-31T07:07:52;97013.06;;;18.33;69.51
79331;BME280;68797;49.782;19.054;2023-07-31T07:10:20;97018.06;;;18.24;68.43
79331;BME280;68797;49.782;19.054;2023-07-31T07:12:52;97019.22;;;18.47;70.94
79331;BME280;68797;49.782;19.054;2023-07-31T07:15:21;97025.25;;;18.51;71.12
79331;BME280;68797;49.782;19.054;2023-07-31T07:17:53;97053.22;;;18.88;69.32
79331;BME280;68797;49.782;19.054;2023-07-31T07:20:20;97045.69;;;18.93;68.74
79331;BME280;68797;49.782;19.054;2023-07-31T07:22:52;97046.47;;;19.08;68.12
79331;BME280;68797;49.782;19.054;2023-07-31T07:25:25;97046.38;;;19.22;68.04
79331;BME280;68797;49.782;19.054;2023-07-31T07:27:55;97051.22;;;19.42;68.28
79331;BME280;68797;49.782;19.054;2023-07-31T07:30:23;97046.69;;;19.43;66.96
79331;BME280;68797;49.782;19.054;2023-07-31T07:33:03;97052.72;;;19.34;65.12
79331;BME280;68797;49.782;19.054;2023-07-31T07:35:33;97043.72;;;19.97;64.65
79331;BME280;68797;49.782;19.054;2023-07-31T07:38:05;97042.03;;;20.20;64.29
79331;BME280;68797;49.782;19.054;2023-07-31T07:40:40;97046.16;;;20.13;63.30
79331;BME280;68797;49.782;19.054;2023-07-31T07:43:13;97048.53;;;20.05;64.90
79331;BME280;68797;49.782;19.054;2023-07-31T07:45:41;97022.81;;;20.24;64.84
79331;BME280;68797;49.782;19.054;2023-07-31T07:48:14;97045.06;;;20.87;60.78
79331;BME280;68797;49.782;19.054;2023-07-31T07:50:47;97011.19;;;21.07;57.77
79331;BME280;68797;49.782;19.054;2023-07-31T07:53:22;97005.19;;;21.26;56.96
79331;BME280;68797;49.782;19.054;2023-07-31T07:55:53;97018.97;;;21.56;54.57
79331;BME280;68797;49.782;19.054;2023-07-31T07:58:29;97036.03;;;22.13;61.20
79331;BME280;68797;49.782;19.054;2023-07-31T08:00:59;97018.63;;;22.38;58.64
79331;BME280;68797;49.782;19.054;2023-07-31T08:03:31;97010.34;;;22.61;60.11
79331;BME280;68797;49.782;19.054;2023-07-31T08:06:02;97027.03;;;22.99;55.11
79331;BME280;68797;49.782;19.054;2023-07-31T08:08:36;97035.06;;;22.89;54.95
79331;BME280;68797;49.782;19.054;2023-07-31T08:11:08;97036.50;;;22.93;51.89
79331;BME280;68797;49.782;19.054;2023-07-31T08:13:50;97029.31;;;22.39;53.57
79331;BME280;68797;49.782;19.054;2023-07-31T08:16:28;97039.47;;;22.58;54.11
79331;BME280;68797;49.782;19.054;2023-07-31T08:19:05;97027.94;;;21.79;55.22
79331;BME280;68797;49.782;19.054;2023-07-31T08:21:38;97038.59;;;22.14;55.11
79331;BME280;68797;49.782;19.054;2023-07-31T08:24:10;97007.53;;;22.09;53.89
79331;BME280;68797;49.782;19.054;2023-07-31T08:26:48;97025.22;;;22.13;58.25
79331;BME280;68797;49.782;19.054;2023-07-31T08:29:19;96996.97;;;21.83;55.21
79331;BME280;68797;49.782;19.054;2023-07-31T08:31:49;97025.81;;;22.92;56.87
79331;BME280;68797;49.782;19.054;2023-07-31T08:34:37;96991.53;;;22.81;52.67
79331;BME280;68797;49.782;19.054;2023-07-31T08:37:09;97034.50;;;22.42;53.15
79331;BME280;68797;49.782;19.054;2023-07-31T08:39:43;97017.34;;;21.98;54.43
79331;BME280;68797;49.782;19.054;2023-07-31T08:42:14;97002.13;;;22.20;53.63
79331;BME280;68797;49.782;19.054;2023-07-31T08:44:44;97003.63;;;21.79;56.84
79331;BME280;68797;49.782;19.054;2023-07-31T08:47:18;96999.47;;;21.53;55.82
79331;BME280;68797;49.782;19.054;2023-07-31T08:49:54;97045.59;;;21.50;57.47
79331;BME280;68797;49.782;19.054;2023-07-31T08:52:25;97016.66;;;21.74;60.79
79331;BME280;68797;49.782;19.054;2023-07-31T08:55:04;96987.13;;;21.15;56.36
79331;BME280;68797;49.782;19.054;2023-07-31T08:57:40;97034.78;;;21.50;56.98
79331;BME280;68797;49.782;19.054;2023-07-31T09:00:21;97031.09;;;22.61;58.33
79331;BME280;68797;49.782;19.054;2023-07-31T09:03:17;97038.94;;;23.38;56.54
79331;BME280;68797;49.782;19.054;2023-07-31T09:05:50;97036.94;;;22.77;54.79
79331;BME280;68797;49.782;19.054;2023-07-31T09:08:21;96983.94;;;22.11;52.94
79331;BME280;68797;49.782;19.054;2023-07-31T09:10:49;97021.03;;;22.20;55.20
79331;BME280;68797;49.782;19.054;2023-07-31T09:13:27;96992.09;;;21.66;54.10
79331;BME280;68797;49.782;19.054;2023-07-31T09:15:59;97013.81;;;21.64;55.81
79331;BME280;68797;49.782;19.054;2023-07-31T09:18:29;97022.66;;;21.78;57.16
79331;BME280;68797;49.782;19.054;2023-07-31T09:21:07;97012.31;;;22.48;60.70
79331;BME280;68797;49.782;19.054;2023-07-31T09:23:44;97005.31;;;23.10;57.58
79331;BME280;68797;49.782;19.054;2023-07-31T09:26:31;97004.34;;;23.41;51.20
79331;BME280;68797;49.782;19.054;2023-07-31T09:29:22;97003.16;;;23.34;51.00
79331;BME280;68797;49.782;19.054;2023-07-31T09:31:54;97013.56;;;22.76;53.11
79331;BME280;68797;49.782;19.054;2023-07-31T09:34:41;96977.63;;;22.32;53.82
79331;BME280;68797;49.782;19.054;2023-07-31T09:37:12;97008.09;;;22.67;52.60
79331;BME280;68797;49.782;19.054;2023-07-31T09:39:47;97014.34;;;22.35;53.47
79331;BME280;68797;49.782;19.054;2023-07-31T09:42:47;97006.69;;;22.72;52.57
79331;BME280;68797;49.782;19.054;2023-07-31T09:45:20;97001.00;;;23.28;56.33
79331;BME280;68797;49.782;19.054;2023-07-31T09:48:02;97004.06;;;22.82;54.60
79331;BME280;68797;49.782;19.054;2023-07-31T09:50:40;96999.56;;;22.39;53.75
79331;BME280;68797;49.782;19.054;2023-07-31T09:53:18;96987.25;;;21.92;54.21
79331;BME280;68797;49.782;19.054;2023-07-31T09:55:51;96994.75;;;21.99;55.41
79331;BME280;68797;49.782;19.054;2023-07-31T09:58:43;96971.94;;;21.81;55.17
79331;BME280;68797;49.782;19.054;2023-07-31T10:01:13;96987.03;;;22.17;58.85
79331;BME280;68797;49.782;19.054;2023-07-31T10:03:49;96980.53;;;22.94;55.98
79331;BME280;68797;49.782;19.054;2023-07-31T10:06:23;96977.97;;;22.92;55.05
79331;BME280;68797;49.782;19.054;2023-07-31T10:09:02;96957.38;;;23.01;55.18
79331;BME280;68797;49.782;19.054;2023-07-31T10:11:47;96980.75;;;22.70;51.43
79331;BME280;68797;49.782;19.054;2023-07-31T10:14:26;96977.41;;;22.56;52.92
79331;BME280;68797;49.782;19.054;2023-07-31T10:19:45;96966.44;;;22.58;51.19
79331;BME280;68797;49.782;19.054;2023-07-31T10:22:22;96966.09;;;22.83;49.42
79331;BME280;68797;49.782;19.054;2023-07-31T10:25:09;96957.66;;;22.98;50.11
79331;BME280;68797;49.782;19.054;2023-07-31T10:27:47;96966.13;;;22.51;51.38
79331;BME280;68797;49.782;19.054;2023-07-31T10:30:29;96971.25;;;22.22;50.89
79331;BME280;68797;49.782;19.054;2023-07-31T10:33:06;96919.56;;;22.04;51.13
79331;BME280;68797;49.782;19.054;2023-07-31T10:36:21;96940.97;;;22.60;53.68
79331;BME280;68797;49.782;19.054;2023-07-31T10:39:03;96962.97;;;22.67;52.66
79331;BME280;68797;49.782;19.054;2023-07-31T10:41:36;96967.38;;;22.68;51.33
79331;BME280;68797;49.782;19.054;2023-07-31T10:44:13;96947.44;;;22.69;51.50
79331;BME280;68797;49.782;19.054;2023-07-31T10:47:00;96918.03;;;22.76;50.64
79331;BME280;68797;49.782;19.054;2023-07-31T10:49:33;96944.72;;;23.01;50.35
79331;BME280;68797;49.782;19.054;2023-07-31T10:52:04;96961.28;;;22.87;49.07
79331;BME280;68797;49.782;19.054;2023-07-31T10:54:41;96928.56;;;22.58;50.67
79331;BME280;68797;49.782;19.054;2023-07-31T10:57:29;96949.19;;;22.91;53.35
79331;BME280;68797;49.782;19.054;2023-07-31T11:00:21;96961.56;;;22.84;48.59
79331;BME280;68797;49.782;19.054;2023-07-31T11:05:55;96948.94;;;22.94;47.42
79331;BME280;68797;49.782;19.054;2023-07-31T11:08:30;96949.84;;;22.63;46.91
79331;BME280;68797;49.782;19.054;2023-07-31T11:11:13;96948.97;;;22.41;51.16
79331;BME280;68797;49.782;19.054;2023-07-31T11:13:57;96961.34;;;22.44;50.96
79331;BME280;68797;49.782;19.054;2023-07-31T11:16:42;96952.66;;;22.61;50.76
79331;BME280;68797;49.782;19.054;2023-07-31T11:19:18;96905.78;;;22.51;46.78
79331;BME280;68797;49.782;19.054;2023-07-31T11:22:20;96906.03;;;22.69;49.26
79331;BME280;68797;49.782;19.054;2023-07-31T11:25:08;96907.66;;;22.60;46.04
79331;BME280;68797;49.782;19.054;2023-07-31T11:27:55;96934.53;;;22.73;48.83
79331;BME280;68797;49.782;19.054;2023-07-31T11:30:37;96931.63;;;22.44;45.71
79331;BME280;68797;49.782;19.054;2023-07-31T11:33:29;96914.66;;;22.42;50.85
79331;BME280;68797;49.782;19.054;2023-07-31T11:36:06;96901.84;;;22.23;46.41
79331;BME280;68797;49.782;19.054;2023-07-31T11:41:46;96893.06;;;21.98;49.03
79331;BME280;68797;49.782;19.054;2023-07-31T11:44:20;96925.19;;;22.24;48.59
79331;BME280;68797;49.782;19.054;2023-07-31T11:46:51;96882.53;;;22.07;48.70
79331;BME280;68797;49.782;19.054;2023-07-31T11:49:39;96916.75;;;22.38;46.95
79331;BME280;68797;49.782;19.054;2023-07-31T11:52:21;96881.47;;;22.19;49.19
79331;BME280;68797;49.782;19.054;2023-07-31T11:55:26;96921.47;;;22.57;48.78
79331;BME280;68797;49.782;19.054;2023-07-31T11:58:13;96921.59;;;22.55;46.48
79331;BME280;68797;49.782;19.054;2023-07-31T12:01:06;96919.03;;;22.54;46.12
79331;BME280;68797;49.782;19.054;2023-07-31T12:04:36;96891.56;;;22.38;46.73
79331;BME280;68797;49.782;19.054;2023-07-31T12:07:20;96925.06;;;22.46;46.22
79331;BME280;68797;49.782;19.054;2023-07-31T12:10:00;96918.63;;;22.58;45.44
79331;BME280;68797;49.782;19.054;2023-07-31T12:12:32;96918.47;;;22.60;45.08
79331;BME280;68797;49.782;19.054;2023-07-31T12:15:18;96888.28;;;22.34;43.45
79331;BME280;68797;49.782;19.054;2023-07-31T12:18:07;96883.28;;;22.29;46.17
79331;BME280;68797;49.782;19.054;2023-07-31T12:20:49;96883.31;;;22.39;45.86
79331;BME280;68797;49.782;19.054;2023-07-31T12:23:34;96887.63;;;22.42;47.20
79331;BME280;68797;49.782;19.054;2023-07-31T12:26:20;96891.78;;;22.67;47.09
79331;BME280;68797;49.782;19.054;2023-07-31T12:29:07;96859.72;;;22.62;48.57
79331;BME280;68797;49.782;19.054;2023-07-31T12:32:02;96881.75;;;22.78;45.46
79331;BME280;68797;49.782;19.054;2023-07-31T12:34:49;96878.56;;;22.84;47.18
79331;BME280;68797;49.782;19.054;2023-07-31T12:37:25;96877.31;;;22.77;46.19
79331;BME280;68797;49.782;19.054;2023-07-31T12:40:09;96866.78;;;22.74;44.94
79331;BME280;68797;49.782;19.054;2023-07-31T12:42:55;96844.09;;;22.45;45.11
79331;BME280;68797;49.782;19.054;2023-07-31T12:45:29;96877.47;;;22.55;45.83
79331;BME280;68797;49.782;19.054;2023-07-31T12:48:10;96839.09;;;22.40;49.63
79331;BME280;68797;49.782;19.054;2023-07-31T12:50:47;96866.84;;;22.63;47.85
79331;BME280;68797;49.782;19.054;2023-07-31T12:53:18;96836.41;;;22.40;47.75
79331;BME280;68797;49.782;19.054;2023-07-31T12:56:01;96851.81;;;22.49;47.85
79331;BME280;68797;49.782;19.054;2023-07-31T12:58:56;96857.88;;;22.63;47.53
79331;BME280;68797;49.782;19.054;2023-07-31T13:01:34;96846.81;;;22.45;46.53
79331;BME280;68797;49.782;19.054;2023-07-31T13:04:33;96856.25;;;22.50;48.88
79331;BME280;68797;49.782;19.054;2023-07-31T13:07:11;96856.25;;;22.50;47.52
79331;BME280;68797;49.782;19.054;2023-07-31T13:09:52;96819.91;;;22.43;47.22
79331;BME280;68797;49.782;19.054;2023-07-31T13:12:40;96855.44;;;22.59;47.25
79331;BME280;68797;49.782;19.054;2023-07-31T13:15:30;96828.09;;;22.32;48.49
79331;BME280;68797;49.782;19.054;2023-07-31T13:18:18;96830.59;;;22.45;45.64
79331;BME280;68797;49.782;19.054;2023-07-31T13:21:12;96836.44;;;22.50;46.16
79331;BME280;68797;49.782;19.054;2023-07-31T13:23:52;96818.91;;;22.44;47.29
79331;BME280;68797;49.782;19.054;2023-07-31T13:26:31;96845.34;;;22.61;47.45
79331;BME280;68797;49.782;19.054;2023-07-31T13:29:03;96814.78;;;22.40;46.77
79331;BME280;68797;49.782;19.054;2023-07-31T13:31:52;96849.38;;;22.67;49.13
79331;BME280;68797;49.782;19.054;2023-07-31T13:34:36;96839.63;;;22.55;47.24
79331;BME280;68797;49.782;19.054;2023-07-31T13:37:19;96844.94;;;22.66;48.56
79331;BME280;68797;49.782;19.054;2023-07-31T13:40:18;96832.06;;;22.58;48.96
79331;BME280;68797;49.782;19.054;2023-07-31T13:42:57;96838.69;;;22.66;49.85
79331;BME280;68797;49.782;19.054;2023-07-31T13:45:56;96819.41;;;22.59;47.00
79331;BME280;68797;49.782;19.054;2023-07-31T13:48:53;96795.94;;;22.39;46.96
79331;BME280;68797;49.782;19.054;2023-07-31T13:51:36;96827.84;;;22.66;48.40
79331;BME280;68797;49.782;19.054;2023-07-31T13:54:16;96773.66;;;22.46;48.16
79331;BME280;68797;49.782;19.054;2023-07-31T13:57:08;96818.34;;;22.71;48.08
79331;BME280;68797;49.782;19.054;2023-07-31T13:59:43;96806.94;;;22.68;47.02
79331;BME280;68797;49.782;19.054;2023-07-31T14:02:36;96809.41;;;22.80;46.12
79331;BME280;68797;49.782;19.054;2023-07-31T14:05:28;96816.19;;;22.86;48.25
79331;BME280;68797;49.782;19.054;2023-07-31T14:08:14;96813.53;;;22.75;47.55
79331;BME280;68797;49.782;19.054;2023-07-31T14:11:11;96805.94;;;22.69;48.17
79331;BME280;68797;49.782;19.054;2023-07-31T14:13:51;96798.38;;;22.63;47.49
79331;BME280;68797;49.782;19.054;2023-07-31T14:16:28;96785.19;;;22.48;49.02
79331;BME280;68797;49.782;19.054;2023-07-31T14:19:02;96791.59;;;22.47;50.87
79331;BME280;68797;49.782;19.054;2023-07-31T14:21:40;96798.47;;;22.51;48.09